Time;durP1;ratioP1;P1;durP2;ratioP2;P2;SDS_P1;SDS_P2;PMS_P1;PMS_P2;Temp;Humidity;BMP_temperature;BMP_pressure;BME280_temperature;BME280_humidity;BME280_pressure;Samples;Min_cycle;Max_cycle;Signal;HPM_P1;HPM_P2
2021/10/28 00:14:00;;;;;;;0.90;0.90;;;;;;;9.79;83.30;102050.81;4959164;28;20034;-70
2021/10/28 00:16:29;;;;;;;1.47;1.37;;;;;;;9.81;83.18;102046.53;4958812;28;20023;-70
2021/10/28 00:19:01;;;;;;;1.20;1.10;;;;;;;9.84;83.55;102041.47;4959208;28;20022;-70
2021/10/28 00:21:30;;;;;;;1.07;1.07;;;;;;;9.77;83.08;102042.88;4954798;29;20058;-70
2021/10/28 00:24:00;;;;;;;1.20;1.13;;;;;;;9.72;83.15;102036.53;4940121;28;20024;-70
2021/10/28 00:26:26;;;;;;;2.17;1.17;;;;;;;9.68;82.97;102032.84;4939000;29;20032;-69
2021/10/28 00:28:57;;;;;;;1.07;1.07;;;;;;;9.63;83.24;102034.31;4940600;29;20462;-70
2021/10/28 00:31:24;;;;;;;0.80;0.80;;;;;;;9.61;83.49;102029.00;4948271;29;20110;-69
2021/10/28 00:33:50;;;;;;;1.23;1.20;;;;;;;9.63;83.69;102029.09;4959415;28;20382;-70
2021/10/28 00:36:15;;;;;;;4.03;3.43;;;;;;;9.65;83.42;102026.56;4958319;29;20110;-69
2021/10/28 00:38:41;;;;;;;5.60;4.30;;;;;;;9.66;83.59;102026.66;4958462;29;20058;-70
2021/10/28 00:41:07;;;;;;;8.63;4.63;;;;;;;9.66;83.85;102023.13;4957934;28;20078;-70
2021/10/28 00:43:33;;;;;;;3.33;3.03;;;;;;;9.65;83.62;102019.59;4959025;28;20043;-70
2021/10/28 00:46:01;;;;;;;6.17;3.77;;;;;;;9.65;83.48;102024.81;4958426;28;20382;-70
2021/10/28 00:48:26;;;;;;;7.00;4.97;;;;;;;9.64;83.55;102016.94;4959102;28;20058;-70
2021/10/28 00:50:53;;;;;;;6.73;3.60;;;;;;;9.61;83.42;102018.53;4958521;28;20109;-70
2021/10/28 00:53:19;;;;;;;4.70;3.30;;;;;;;9.60;83.83;102011.53;4957427;28;20363;-70
2021/10/28 00:55:45;;;;;;;2.57;2.37;;;;;;;9.64;83.74;102015.19;4957663;28;20113;-69
2021/10/28 00:58:11;;;;;;;4.33;2.80;;;;;;;9.61;83.69;102015.03;4957025;28;20572;-69
2021/10/28 01:00:36;;;;;;;2.67;2.37;;;;;;;9.61;83.73;102012.44;4955132;28;20032;-70
2021/10/28 01:03:05;;;;;;;2.57;1.87;;;;;;;9.66;83.59;102016.19;4956856;28;20390;-70
2021/10/28 01:05:31;;;;;;;2.40;1.87;;;;;;;9.66;83.48;102015.28;4957886;28;20393;-70
2021/10/28 01:07:58;;;;;;;1.77;1.50;;;;;;;9.68;83.65;102024.09;4957774;28;20031;-70
2021/10/28 01:10:26;;;;;;;0.80;0.80;;;;;;;9.71;83.55;102019.91;4955943;29;20624;-69
2021/10/28 01:12:54;;;;;;;1.17;1.17;;;;;;;9.66;83.51;102021.41;4958482;28;20063;-70
2021/10/28 01:15:21;;;;;;;0.30;0.30;;;;;;;9.68;83.43;102011.94;4958029;28;20039;-69
2021/10/28 01:17:47;;;;;;;0.73;0.73;;;;;;;9.66;83.40;102010.03;4959230;29;20038;-70
2021/10/28 01:20:16;;;;;;;0.60;0.60;;;;;;;9.68;83.43;102019.78;4958503;28;20050;-70
2021/10/28 01:22:43;;;;;;;0.30;0.30;;;;;;;9.66;83.51;102008.34;4957963;29;20023;-70
2021/10/28 01:25:10;;;;;;;0.50;0.50;;;;;;;9.64;83.43;102002.13;4958505;28;20398;-70
2021/10/28 01:27:36;;;;;;;0.50;0.50;;;;;;;9.63;83.40;102005.56;4959089;28;20027;-70
2021/10/28 01:30:01;;;;;;;0.50;0.50;;;;;;;9.62;83.52;101995.91;4959836;29;20027;-69
2021/10/28 01:32:30;;;;;;;0.80;0.80;;;;;;;9.60;83.54;102001.06;4957610;29;20035;-71
2021/10/28 01:34:55;;;;;;;0.73;0.73;;;;;;;9.60;83.62;102008.03;4962193;28;20031;-70
2021/10/28 01:37:21;;;;;;;0.20;0.20;;;;;;;9.59;83.61;101998.38;4962405;28;20048;-70
2021/10/28 01:39:46;;;;;;;0.50;0.50;;;;;;;9.63;83.43;101997.72;4962394;28;20019;-70
2021/10/28 01:42:12;;;;;;;0.37;0.37;;;;;;;9.65;83.10;101996.06;4962170;28;20043;-69
2021/10/28 01:44:38;;;;;;;0.20;0.20;;;;;;;9.67;83.00;101991.81;4962192;28;20102;-69
2021/10/28 01:47:04;;;;;;;0.20;0.20;;;;;;;9.67;83.11;101999.69;4961261;28;20043;-69
2021/10/28 01:49:30;;;;;;;0.30;0.30;;;;;;;9.69;83.11;101991.88;4962191;28;20070;-70
2021/10/28 01:51:57;;;;;;;1.17;0.33;;;;;;;9.67;83.01;101989.22;4961385;28;20456;-69
2021/10/28 01:54:23;;;;;;;0.27;0.20;;;;;;;9.65;83.25;101988.22;4962221;28;20027;-69
2021/10/28 01:56:48;;;;;;;0.10;0.10;;;;;;;9.60;83.01;101981.88;4961688;28;20062;-69
2021/10/28 01:59:14;;;;;;;0.30;0.30;;;;;;;9.62;83.05;101983.75;4961935;28;20035;-69
2021/10/28 02:01:39;;;;;;;0.20;0.20;;;;;;;9.67;82.89;101978.75;4957527;29;20023;-69
2021/10/28 02:04:04;;;;;;;0.37;0.37;;;;;;;9.66;82.80;101978.66;4950926;28;20051;-70
2021/10/28 02:06:31;;;;;;;0.10;0.10;;;;;;;9.60;82.79;101976.63;4950937;29;20102;-70
2021/10/28 02:08:57;;;;;;;0.30;0.30;;;;;;;9.57;82.90;101977.38;4961709;28;20106;-70
2021/10/28 02:11:22;;;;;;;0.03;0.03;;;;;;;9.55;82.95;101967.66;4961510;28;20362;-70
2021/10/28 02:13:47;;;;;;;0.40;0.40;;;;;;;9.55;82.95;101973.78;4953445;29;20127;-69
2021/10/28 02:16:13;;;;;;;0.20;0.20;;;;;;;9.53;82.89;101969.31;4956179;29;20035;-70
2021/10/28 02:18:39;;;;;;;0.10;0.10;;;;;;;9.52;82.89;101965.78;4961817;29;20106;-69
2021/10/28 02:21:04;;;;;;;0.20;0.20;;;;;;;9.47;83.02;101956.81;4961376;29;20071;-69
2021/10/28 02:23:30;;;;;;;0.00;0.00;;;;;;;9.46;83.20;101966.38;4961252;28;20046;-70
2021/10/28 02:25:55;;;;;;;0.27;0.27;;;;;;;9.41;83.00;101970.44;4961052;28;20035;-70
2021/10/28 02:28:20;;;;;;;0.10;0.10;;;;;;;9.34;83.01;101968.38;4961634;29;20027;-69
2021/10/28 02:30:46;;;;;;;0.10;0.10;;;;;;;9.30;83.00;101966.41;4961245;29;20419;-70
2021/10/28 02:33:12;;;;;;;0.13;0.13;;;;;;;9.23;83.16;101970.44;4960878;29;20078;-71
2021/10/28 02:35:37;;;;;;;0.10;0.10;;;;;;;9.21;83.34;101965.13;4954808;28;20057;-70
2021/10/28 02:38:03;;;;;;;0.20;0.20;;;;;;;9.18;83.18;101967.56;4953571;29;20027;-70
2021/10/28 02:40:28;;;;;;;0.10;0.10;;;;;;;9.14;83.20;101956.88;4961064;28;20038;-69
2021/10/28 02:42:54;;;;;;;0.10;0.10;;;;;;;9.10;83.33;101953.22;4961354;28;20041;-70
2021/10/28 02:45:19;;;;;;;0.50;0.50;;;;;;;9.04;83.39;101953.78;4960304;29;20024;-72
2021/10/28 02:47:45;;;;;;;0.10;0.10;;;;;;;9.00;83.33;101949.22;4960840;28;20402;-70
2021/10/28 02:50:10;;;;;;;0.10;0.10;;;;;;;8.95;83.24;101940.22;4960268;29;20105;-68
2021/10/28 02:52:36;;;;;;;0.67;0.27;;;;;;;8.93;83.64;101944.47;4961405;28;20110;-70
2021/10/28 02:55:04;;;;;;;0.23;0.23;;;;;;;8.87;83.59;101936.31;4944264;29;20023;-70
2021/10/28 02:57:29;;;;;;;0.10;0.10;;;;;;;8.90;83.51;101934.75;4960649;28;20035;-69
2021/10/28 02:59:55;;;;;;;0.10;0.10;;;;;;;8.89;83.15;101935.59;4959752;29;20398;-70
2021/10/28 03:02:20;;;;;;;0.00;0.00;;;;;;;8.87;83.87;101931.09;4961405;28;20027;-69
2021/10/28 03:04:45;;;;;;;0.20;0.20;;;;;;;8.83;83.77;101930.03;4958101;28;20437;-69
2021/10/28 03:07:11;;;;;;;0.00;0.00;;;;;;;8.86;83.76;101926.69;4953214;29;20035;-70
2021/10/28 03:09:36;;;;;;;0.50;0.50;;;;;;;8.85;83.82;101920.53;4960159;29;20409;-71
2021/10/28 03:12:04;;;;;;;0.10;0.10;;;;;;;8.90;83.69;101923.44;4960579;29;20043;-70
2021/10/28 03:27:41;;;;;;;0.10;0.10;;;;;;;8.64;83.93;101910.78;4960546;29;20094;-69
2021/10/28 03:30:08;;;;;;;0.07;0.07;;;;;;;8.60;83.78;101908.81;4959965;28;20062;-70
2021/10/28 03:32:34;;;;;;;0.10;0.10;;;;;;;8.58;84.00;101900.00;4960509;28;20035;-69
2021/10/28 03:34:59;;;;;;;0.00;0.00;;;;;;;8.58;84.16;101902.63;4959711;28;20032;-70
2021/10/28 03:40:08;;;;;;;0.20;0.20;;;;;;;8.54;83.90;101897.16;4941143;29;20043;-69
2021/10/28 04:01:05;;;;;;;0.00;0.00;;;;;;;8.25;84.20;101890.41;4959853;29;20083;-69
2021/10/28 04:08:59;;;;;;;0.00;0.00;;;;;;;8.15;84.31;101892.44;4942042;29;20039;-68
2021/10/28 04:30:06;;;;;;;0.33;0.33;;;;;;;7.87;84.18;101870.94;4958558;29;20433;-68
2021/10/28 04:32:32;;;;;;;0.10;0.10;;;;;;;7.86;84.34;101869.13;4959365;28;20088;-68
2021/10/28 04:34:57;;;;;;;0.03;0.03;;;;;;;7.84;84.41;101875.94;4959149;28;20030;-68
2021/10/28 04:37:23;;;;;;;0.07;0.07;;;;;;;7.81;84.30;101870.56;4959758;29;20038;-68
2021/10/28 04:39:49;;;;;;;0.10;0.10;;;;;;;7.78;84.33;101881.72;4958284;29;20031;-68
2021/10/28 04:42:14;;;;;;;0.00;0.00;;;;;;;7.76;84.27;101879.84;4952530;28;20024;-68
2021/10/28 04:44:40;;;;;;;0.00;0.00;;;;;;;7.72;84.40;101868.34;4948167;29;20055;-68
2021/10/28 04:47:07;;;;;;;0.00;0.00;;;;;;;7.70;84.56;101867.34;4939761;29;20024;-68
2021/10/28 04:49:32;;;;;;;0.10;0.10;;;;;;;7.69;84.41;101874.28;4940089;29;20115;-68
2021/10/28 04:51:58;;;;;;;0.07;0.07;;;;;;;7.70;84.73;101865.66;4943133;28;20159;-68
2021/10/28 04:54:23;;;;;;;0.20;0.20;;;;;;;7.70;84.65;101862.13;4958551;28;20047;-69
2021/10/28 04:56:48;;;;;;;0.13;0.13;;;;;;;7.69;84.66;101863.88;4959167;28;20041;-68
2021/10/28 04:59:14;;;;;;;0.37;0.20;;;;;;;7.70;84.90;101862.13;4958551;29;20390;-68
2021/10/28 05:01:40;;;;;;;0.00;0.00;;;;;;;7.69;84.73;101862.94;4958249;28;20043;-68
2021/10/28 05:04:05;;;;;;;0.00;0.00;;;;;;;7.70;84.77;101864.75;4958750;28;20118;-68
2021/10/28 05:06:30;;;;;;;0.07;0.07;;;;;;;7.71;84.99;101866.53;4958959;29;20297;-68
2021/10/28 05:08:56;;;;;;;0.00;0.00;;;;;;;7.70;84.97;101862.13;4958084;29;20043;-68
2021/10/28 05:11:23;;;;;;;0.00;0.00;;;;;;;7.73;85.09;101859.72;4958087;28;20035;-69
2021/10/28 05:13:50;;;;;;;0.00;0.00;;;;;;;7.74;85.30;101863.22;4956629;28;20023;-68
2021/10/28 05:16:15;;;;;;;0.20;0.20;;;;;;;7.75;85.10;101867.59;4953733;28;20027;-68
2021/10/28 05:18:41;;;;;;;0.00;0.00;;;;;;;7.76;85.40;101869.41;4957989;28;20030;-68
2021/10/28 05:21:11;;;;;;;0.10;0.10;;;;;;;7.77;85.34;101871.19;4950780;28;20039;-68
2021/10/28 05:23:37;;;;;;;0.00;0.00;;;;;;;7.76;85.18;101862.50;4957818;28;20040;-68
2021/10/28 05:26:02;;;;;;;0.00;0.00;;;;;;;7.74;85.36;101863.22;4955398;29;20031;-68
2021/10/28 05:28:28;;;;;;;0.00;0.00;;;;;;;7.75;85.27;101862.41;4958649;28;20433;-68
2021/10/28 05:30:53;;;;;;;0.00;0.00;;;;;;;7.78;85.35;101857.38;4951285;28;20063;-68
2021/10/28 05:33:19;;;;;;;0.00;0.00;;;;;;;7.79;85.40;101860.03;4958990;28;20046;-68
2021/10/28 05:35:45;;;;;;;0.10;0.10;;;;;;;7.77;85.18;101859.06;4941460;29;20223;-68
2021/10/28 05:38:11;;;;;;;0.10;0.10;;;;;;;7.77;84.94;101852.94;4958529;28;20027;-68
2021/10/28 05:40:36;;;;;;;0.10;0.10;;;;;;;7.77;85.06;101848.63;4958724;28;20035;-68
2021/10/28 05:43:02;;;;;;;0.30;0.30;;;;;;;7.77;85.29;101845.13;4958583;29;20107;-68
2021/10/28 05:45:28;;;;;;;0.20;0.20;;;;;;;7.77;85.06;101843.44;4947736;28;20051;-68
2021/10/28 05:47:53;;;;;;;0.00;0.00;;;;;;;7.74;84.91;101843.25;4958548;28;20039;-68
2021/10/28 05:50:21;;;;;;;0.07;0.07;;;;;;;7.73;85.12;101844.09;4958416;28;20157;-68
2021/10/28 05:52:47;;;;;;;0.00;0.00;;;;;;;7.73;85.03;101843.16;4954512;28;20023;-68
2021/10/28 05:55:13;;;;;;;0.03;0.03;;;;;;;7.72;84.96;101847.47;4950542;29;20042;-68
2021/10/28 05:57:39;;;;;;;0.00;0.00;;;;;;;7.73;85.12;101848.38;4951537;28;20099;-68
2021/10/28 06:00:08;;;;;;;0.10;0.10;;;;;;;7.78;85.21;101852.16;4957993;28;20046;-68
2021/10/28 06:02:35;;;;;;;0.00;0.00;;;;;;;7.79;85.35;101851.34;4958580;28;20027;-68
2021/10/28 06:05:01;;;;;;;0.03;0.03;;;;;;;7.79;85.09;101851.34;4945137;28;20040;-68
2021/10/28 06:07:26;;;;;;;0.00;0.00;;;;;;;7.79;84.86;101849.63;4939649;29;20027;-68
2021/10/28 06:09:51;;;;;;;0.00;0.00;;;;;;;7.80;85.14;101851.41;4949360;28;20043;-68
2021/10/28 06:12:17;;;;;;;0.10;0.10;;;;;;;7.87;85.12;101844.84;4957804;28;20382;-68
2021/10/28 06:14:42;;;;;;;2.00;0.53;;;;;;;7.90;85.02;101842.41;4957218;28;20118;-68
2021/10/28 06:17:09;;;;;;;0.17;0.17;;;;;;;7.85;84.85;101841.25;4960582;29;20039;-68
2021/10/28 06:19:36;;;;;;;0.00;0.00;;;;;;;7.82;84.89;101841.06;4961668;28;20184;-68
2021/10/28 06:22:05;;;;;;;0.00;0.00;;;;;;;7.80;84.90;101845.31;4941542;29;20056;-67
2021/10/28 06:24:30;;;;;;;0.20;0.20;;;;;;;7.78;85.06;101836.50;4955695;29;20043;-67
2021/10/28 06:26:55;;;;;;;0.00;0.00;;;;;;;7.81;85.11;101840.19;4959931;29;20031;-67
2021/10/28 06:29:21;;;;;;;0.10;0.10;;;;;;;7.81;85.19;101837.59;4958740;29;20059;-67
2021/10/28 06:31:48;;;;;;;0.00;0.00;;;;;;;7.84;85.25;101835.13;4958989;28;20051;-68
2021/10/28 06:34:27;;;;;;;0.07;0.07;;;;;;;7.86;85.32;101835.22;4957694;29;20391;-67
2021/10/28 06:36:54;;;;;;;0.00;0.00;;;;;;;7.85;85.18;101828.22;4961356;28;20023;-67
2021/10/28 06:39:20;;;;;;;0.20;0.20;;;;;;;7.88;85.30;101827.47;4961320;28;20030;-68
2021/10/28 06:41:45;;;;;;;0.10;0.10;;;;;;;7.89;85.61;101819.75;4961651;29;20031;-67
2021/10/28 06:44:10;;;;;;;0.20;0.20;;;;;;;7.89;85.13;101830.16;4960713;28;20075;-68
2021/10/28 06:46:36;;;;;;;0.00;0.00;;;;;;;7.90;85.13;101823.25;4960893;28;20042;-68
2021/10/28 06:49:06;;;;;;;0.00;0.00;;;;;;;7.96;85.18;101820.97;4961023;28;20071;-69
2021/10/28 06:51:37;;;;;;;0.03;0.03;;;;;;;7.95;84.93;101821.78;4960592;29;20394;-68
2021/10/28 06:54:09;;;;;;;0.00;0.00;;;;;;;7.94;84.92;101820.91;4961002;28;20031;-68
2021/10/28 07:04:34;;;;;;;0.10;0.10;;;;;;;8.07;85.20;101818.94;4960978;29;20098;-67
2021/10/28 07:06:59;;;;;;;0.00;0.00;;;;;;;8.08;84.75;101818.13;4959870;29;20303;-67
2021/10/28 07:09:37;;;;;;;0.10;0.10;;;;;;;8.09;84.98;101815.59;4960936;28;20050;-67
2021/10/28 07:12:14;;;;;;;0.13;0.13;;;;;;;8.13;84.77;101813.16;4960865;28;20046;-67
2021/10/28 07:14:44;;;;;;;0.00;0.00;;;;;;;8.15;84.75;101812.44;4959406;29;20028;-67
2021/10/28 07:35:40;;;;;;;0.20;0.20;;;;;;;8.44;84.18;101793.91;4959616;28;20086;-67
2021/10/28 07:38:35;;;;;;;0.10;0.10;;;;;;;8.48;84.39;101788.94;4960253;28;20027;-67
2021/10/28 08:21:30;;;;;;;0.10;0.10;;;;;;;9.76;81.02;101741.19;4940210;29;20027;-68
2021/10/28 08:29:20;;;;;;;0.10;0.10;;;;;;;10.01;79.65;101728.28;4938155;29;20078;-68
2021/10/28 08:31:46;;;;;;;0.93;0.37;;;;;;;10.09;79.15;101726.03;4938181;29;20043;-69
2021/10/28 08:34:11;;;;;;;0.20;0.20;;;;;;;10.13;79.37;101734.09;4938081;28;20390;-67
2021/10/28 08:36:44;;;;;;;0.30;0.30;;;;;;;10.17;79.34;101730.78;4939875;28;20278;-68
2021/10/28 08:39:09;;;;;;;0.20;0.20;;;;;;;10.18;79.07;101723.81;4939427;29;20074;-68
2021/10/28 08:41:35;;;;;;;0.10;0.10;;;;;;;10.20;79.37;101718.66;4940213;29;20031;-68
2021/10/28 08:44:02;;;;;;;0.23;0.23;;;;;;;10.28;78.87;101723.38;4939304;29;20031;-69
2021/10/28 08:46:28;;;;;;;0.33;0.33;;;;;;;10.42;78.25;101721.41;4939557;29;20078;-69
2021/10/28 08:49:03;;;;;;;0.23;0.23;;;;;;;10.51;78.30;101720.91;4939775;29;20028;-69
2021/10/28 09:26:53;;;;;;;0.40;0.40;;;;;;;11.37;75.29;101674.53;4959169;28;20023;-70
2021/10/28 09:30:13;;;;;;;0.43;0.43;;;;;;;11.44;74.61;101667.81;4959144;28;20046;-69
2021/10/28 09:43:47;;;;;;;0.40;0.40;;;;;;;11.73;74.32;101647.91;4958106;29;20337;-69
2021/10/28 09:46:45;;;;;;;0.45;0.45;;;;;;;11.85;73.47;101646.56;4957384;28;20031;-68
2021/10/28 10:00:03;;;;;;;0.40;0.40;;;;;;;12.06;73.13;101644.75;4961146;28;20190;-69
2021/10/28 10:04:57;;;;;;;1.60;0.80;;;;;;;12.25;72.05;101644.50;4961932;28;20050;-69
2021/10/28 10:07:23;;;;;;;1.10;1.00;;;;;;;12.42;71.27;101642.41;4961728;29;20027;-70
2021/10/28 10:09:48;;;;;;;0.50;0.50;;;;;;;12.54;70.38;101641.94;4961656;28;20028;-70
2021/10/28 10:12:15;;;;;;;0.40;0.40;;;;;;;12.61;70.62;101636.94;4961351;28;20403;-70
2021/10/28 10:14:42;;;;;;;0.63;0.63;;;;;;;12.64;70.73;101634.41;4961696;28;20106;-70
2021/10/28 10:17:08;;;;;;;0.27;0.27;;;;;;;12.68;70.54;101624.88;4960966;29;20389;-71
2021/10/28 10:19:35;;;;;;;0.57;0.57;;;;;;;12.75;70.41;101629.50;4962107;28;20031;-70
2021/10/28 10:22:15;;;;;;;0.73;0.70;;;;;;;12.75;70.91;101628.59;4960918;29;20035;-70
2021/10/28 10:24:48;;;;;;;0.40;0.40;;;;;;;12.81;70.03;101623.53;4946590;29;20027;-69
2021/10/28 11:05:19;;;;;;;0.50;0.50;;;;;;;13.71;65.09;101581.47;4960587;28;20058;-70
2021/10/28 11:28:25;;;;;;;0.57;0.57;;;;;;;14.22;62.78;101552.06;4959994;29;20049;-69
2021/10/28 11:31:19;;;;;;;0.60;0.60;;;;;;;14.28;63.58;101550.44;4957392;29;20354;-69
2021/10/28 12:14:27;;;;;;;0.40;0.40;;;;;;;14.81;60.34;101498.06;4959197;29;20309;-70
2021/10/28 12:43:28;;;;;;;0.63;0.63;;;;;;;15.10;60.04;101458.22;4956380;29;20409;-70
2021/10/28 12:45:57;;;;;;;0.43;0.43;;;;;;;15.23;59.86;101430.34;4958698;28;20089;-70
2021/10/28 12:48:48;;;;;;;0.37;0.37;;;;;;;15.26;59.33;101419.88;4958275;29;20582;-71
2021/10/28 12:51:35;;;;;;;0.60;0.60;;;;;;;15.28;59.87;101414.59;4958982;28;20047;-71
2021/10/28 13:02:25;;;;;;;1.20;0.73;;;;;;;15.31;60.52;101407.63;4958622;29;20058;-71
2021/10/28 13:48:31;;;;;;;0.57;0.57;;;;;;;15.24;58.91;101377.63;4962378;29;20408;-74
2021/10/28 13:51:22;;;;;;;0.43;0.43;;;;;;;15.21;59.69;101379.31;4961723;28;20043;-71
2021/10/28 14:18:21;;;;;;;0.77;0.60;;;;;;;15.01;60.37;101361.34;4961753;28;20046;-70
2021/10/28 14:20:49;;;;;;;0.60;0.60;;;;;;;14.99;61.23;101356.94;4961711;28;20362;-71
2021/10/28 15:01:06;;;;;;;0.50;0.50;;;;;;;14.29;63.23;101324.81;4960118;29;20082;-70
2021/10/28 15:35:49;;;;;;;0.80;0.80;;;;;;;13.80;63.98;101306.19;4957700;29;20081;-71
2021/10/28 15:38:22;;;;;;;0.77;0.77;;;;;;;13.84;63.55;101294.91;4957884;28;20295;-69
2021/10/28 15:57:08;;;;;;;0.50;0.50;;;;;;;13.46;64.98;101283.53;4958097;28;20050;-71
2021/10/28 16:24:08;;;;;;;0.50;0.50;;;;;;;12.88;67.54;101268.06;4958166;29;20034;-71
2021/10/28 16:26:34;;;;;;;0.60;0.60;;;;;;;12.77;68.01;101251.16;4958237;28;20023;-70
2021/10/28 16:29:03;;;;;;;0.53;0.40;;;;;;;12.70;67.42;101254.47;4956953;28;20019;-70
2021/10/28 16:31:36;;;;;;;0.50;0.50;;;;;;;12.63;68.53;101242.88;4954527;29;20035;-70
2021/10/28 16:34:02;;;;;;;0.50;0.50;;;;;;;12.59;68.60;101235.78;4956314;29;20027;-71
2021/10/28 16:36:27;;;;;;;0.40;0.40;;;;;;;12.50;68.73;101236.41;4955664;29;20026;-71
2021/10/28 16:38:53;;;;;;;0.57;0.57;;;;;;;12.40;69.74;101242.28;4939762;29;20027;-70
2021/10/28 16:41:19;;;;;;;0.30;0.30;;;;;;;12.31;69.87;101235.94;4955157;29;20043;-70
2021/10/28 16:43:44;;;;;;;0.40;0.40;;;;;;;12.23;70.70;101240.94;4956444;28;20114;-70
2021/10/28 16:46:11;;;;;;;1.40;0.80;;;;;;;12.13;70.72;101236.31;4955663;29;20029;-71
2021/10/28 16:48:37;;;;;;;0.40;0.40;;;;;;;12.06;70.65;101244.84;4955313;28;20035;-70
2021/10/28 16:51:04;;;;;;;0.30;0.30;;;;;;;11.99;70.88;101242.84;4957303;29;20035;-69
2021/10/28 16:53:29;;;;;;;0.40;0.40;;;;;;;11.94;71.08;101248.88;4955887;28;20394;-70
2021/10/28 16:55:55;;;;;;;0.50;0.50;;;;;;;11.92;70.86;101247.94;4954679;28;20039;-70
2021/10/28 16:58:20;;;;;;;0.63;0.63;;;;;;;11.89;71.73;101252.22;4956872;28;20050;-70
2021/10/28 17:00:49;;;;;;;0.47;0.47;;;;;;;11.82;72.00;101251.13;4955955;28;20038;-71
2021/10/28 17:03:15;;;;;;;0.67;0.67;;;;;;;11.77;71.88;101244.88;4955387;29;20027;-71
2021/10/28 17:05:46;;;;;;;0.50;0.50;;;;;;;11.70;72.47;101243.78;4955900;29;20043;-71
2021/10/28 17:08:11;;;;;;;0.40;0.40;;;;;;;11.64;72.78;101236.63;4957214;28;20034;-71
2021/10/28 17:10:36;;;;;;;0.40;0.40;;;;;;;11.57;73.44;101237.28;4957140;29;20098;-71
2021/10/28 17:13:02;;;;;;;0.87;0.40;;;;;;;11.50;73.16;101232.66;4953368;29;20640;-72
2021/10/28 17:15:27;;;;;;;0.40;0.40;;;;;;;11.45;73.38;101224.66;4955624;29;20035;-71
2021/10/28 17:17:52;;;;;;;0.43;0.43;;;;;;;11.39;73.44;101225.38;4956775;28;20051;-70
2021/10/28 17:20:19;;;;;;;1.70;0.50;;;;;;;11.34;73.92;101226.09;4957366;28;20066;-71
2021/10/28 17:22:45;;;;;;;0.30;0.30;;;;;;;11.29;74.34;101225.03;4957309;28;20184;-70
2021/10/28 17:25:17;;;;;;;0.50;0.50;;;;;;;11.22;74.01;101216.09;4955330;28;20110;-71
2021/10/28 17:27:46;;;;;;;0.40;0.40;;;;;;;11.19;74.42;101224.75;4956492;29;20106;-70
2021/10/28 17:30:14;;;;;;;0.50;0.50;;;;;;;11.16;75.41;101215.91;4956310;28;20023;-72
2021/10/28 17:32:41;;;;;;;0.40;0.40;;;;;;;11.13;74.24;101222.81;4957151;28;20023;-71
2021/10/28 17:35:08;;;;;;;0.40;0.40;;;;;;;11.13;74.50;101232.41;4956446;28;20035;-70
2021/10/28 17:37:33;;;;;;;0.40;0.40;;;;;;;11.11;74.30;101227.13;4954300;28;20023;-71
2021/10/28 17:39:59;;;;;;;0.53;0.53;;;;;;;11.12;74.51;101222.78;4955913;28;20106;-70
2021/10/28 17:42:24;;;;;;;0.63;0.63;;;;;;;11.11;74.77;101218.38;4959370;28;20039;-71
2021/10/28 17:45:00;;;;;;;0.40;0.40;;;;;;;11.08;74.53;101213.03;4957680;28;20390;-69
2021/10/28 17:47:26;;;;;;;;;;;;;;;11.07;74.71;101208.63;4958504;28;20066;-71
2021/10/28 17:49:51;;;;;;;0.40;0.40;;;;;;;11.05;74.57;101216.44;4956618;28;19957;-70
2021/10/28 17:52:18;;;;;;;0.50;0.50;;;;;;;11.03;74.48;101217.22;4955616;28;20329;-71
2021/10/28 17:54:44;;;;;;;0.50;0.50;;;;;;;10.99;74.39;101217.16;4956484;29;20023;-71
2021/10/28 17:57:10;;;;;;;0.30;0.30;;;;;;;10.98;74.70;101207.47;4956258;28;20118;-70
2021/10/28 17:59:36;;;;;;;0.30;0.30;;;;;;;10.97;74.61;101210.06;4956868;28;20046;-72
2021/10/28 18:02:02;;;;;;;0.20;0.20;;;;;;;10.95;74.74;101211.72;4961373;28;20039;-71
2021/10/28 18:04:28;;;;;;;0.33;0.33;;;;;;;10.92;74.70;101215.16;4958737;28;20062;-70
2021/10/28 18:06:53;;;;;;;0.30;0.30;;;;;;;10.91;74.79;101216.00;4956306;28;20059;-71
2021/10/28 18:09:23;;;;;;;0.50;0.50;;;;;;;10.95;74.17;101214.34;4957298;28;20027;-71
2021/10/28 18:11:53;;;;;;;0.30;0.30;;;;;;;11.01;73.86;101214.56;4958943;28;20378;-72
2021/10/28 18:14:18;;;;;;;0.20;0.20;;;;;;;11.05;73.70;101207.69;4958160;29;20034;-71
2021/10/28 18:16:45;;;;;;;0.50;0.50;;;;;;;11.05;73.94;101210.31;4959832;28;20043;-72
2021/10/28 18:19:10;;;;;;;0.60;0.53;;;;;;;11.09;73.20;101202.59;4941966;29;20090;-71
2021/10/28 18:21:38;;;;;;;0.40;0.40;;;;;;;11.09;73.79;101207.81;4958243;28;20055;-70
2021/10/28 18:24:04;;;;;;;0.60;0.60;;;;;;;11.04;73.81;101203.28;4958486;28;20050;-71
2021/10/28 18:26:30;;;;;;;0.40;0.40;;;;;;;11.02;74.13;101203.22;4959414;28;20028;-71
2021/10/28 18:28:56;;;;;;;0.33;0.33;;;;;;;10.99;74.24;101208.38;4960174;28;20182;-71
2021/10/28 18:31:22;;;;;;;0.30;0.30;;;;;;;10.96;74.32;101203.94;4959923;28;20027;-71
2021/10/28 18:33:49;;;;;;;0.40;0.40;;;;;;;10.91;74.56;101200.28;4959934;28;20047;-71
2021/10/28 18:36:15;;;;;;;0.50;0.50;;;;;;;10.88;74.74;101196.66;4959991;28;20036;-70
2021/10/28 18:38:47;;;;;;;0.30;0.30;;;;;;;10.83;75.31;101200.00;4959996;28;20102;-72
2021/10/28 18:41:15;;;;;;;0.20;0.20;;;;;;;10.83;74.78;101202.63;4960208;28;20283;-71
2021/10/28 18:43:41;;;;;;;0.40;0.40;;;;;;;10.88;74.66;101202.78;4958793;28;20054;-71
2021/10/28 18:46:06;;;;;;;0.33;0.33;;;;;;;10.88;74.65;101200.16;4959111;28;20035;-71
2021/10/28 18:48:33;;;;;;;0.33;0.33;;;;;;;10.88;74.82;101201.91;4958436;28;20031;-70
2021/10/28 18:50:59;;;;;;;0.50;0.40;;;;;;;10.84;75.12;101201.78;4958621;29;20055;-71
2021/10/28 18:53:25;;;;;;;0.40;0.40;;;;;;;10.81;75.61;101204.31;4959166;28;20027;-69
2021/10/28 18:55:52;;;;;;;0.70;0.70;;;;;;;10.78;75.45;101192.84;4959636;28;20042;-71
2021/10/28 18:58:17;;;;;;;0.90;0.50;;;;;;;10.72;76.31;101197.03;4957782;29;20080;-72
2021/10/28 19:00:43;;;;;;;0.40;0.40;;;;;;;10.70;75.93;101196.09;4958544;29;20110;-70
2021/10/28 19:03:08;;;;;;;0.30;0.30;;;;;;;10.72;75.40;101202.28;4959089;29;20042;-70
2021/10/28 19:05:34;;;;;;;0.20;0.20;;;;;;;10.74;75.32;101202.34;4959742;28;20687;-70
2021/10/28 19:08:00;;;;;;;0.30;0.30;;;;;;;10.75;75.32;101203.22;4958581;28;20039;-70
2021/10/28 19:10:25;;;;;;;0.50;0.50;;;;;;;10.73;75.48;101203.19;4959664;28;20140;-71
2021/10/28 19:12:51;;;;;;;0.30;0.30;;;;;;;10.71;75.28;101197.00;4959877;28;20027;-71
2021/10/28 19:15:17;;;;;;;0.50;0.50;;;;;;;10.67;75.48;101192.50;4959147;28;20046;-70
2021/10/28 19:17:46;;;;;;;5.00;0.50;;;;;;;10.64;76.33;101192.41;4959435;28;20082;-71
2021/10/28 19:20:12;;;;;;;0.30;0.30;;;;;;;10.62;76.05;101189.72;4959239;29;20039;-71
2021/10/28 19:22:37;;;;;;;0.50;0.50;;;;;;;10.63;76.08;101188.00;4958719;28;20038;-71
2021/10/28 19:25:04;;;;;;;0.30;0.30;;;;;;;10.64;75.95;101182.78;4958601;29;20023;-70
2021/10/28 19:27:29;;;;;;;0.30;0.30;;;;;;;10.66;76.12;101177.63;4959465;28;20027;-70
2021/10/28 19:30:05;;;;;;;0.30;0.30;;;;;;;10.64;76.17;101172.31;4958755;29;20098;-71
2021/10/28 19:32:30;;;;;;;0.30;0.30;;;;;;;10.63;76.33;101180.16;4959317;29;20698;-70
2021/10/28 19:34:56;;;;;;;0.30;0.30;;;;;;;10.76;75.46;101176.19;4959167;28;20117;-71
2021/10/28 19:46:08;;;;;;;2.33;0.40;;;;;;;10.82;75.41;101171.13;4978369;28;20402;-70
2021/10/28 19:48:13;;;;;;;0.40;0.40;;;;;;;10.90;74.98;101166.16;4966628;28;20047;-71
2021/10/28 19:50:38;;;;;;;0.40;0.40;;;;;;;10.89;75.07;101167.00;4956201;28;20038;-71
2021/10/28 19:53:04;;;;;;;0.30;0.30;;;;;;;10.86;75.29;101163.44;4956540;28;20051;-72
2021/10/28 19:55:30;;;;;;;0.60;0.60;;;;;;;10.91;74.77;101160.97;4959389;28;20042;-71
2021/10/28 19:57:55;;;;;;;0.70;0.70;;;;;;;10.90;74.53;101164.41;4940801;29;20126;-71
2021/10/28 20:00:36;;;;;;;0.40;0.40;;;;;;;10.87;74.79;101159.09;4959153;28;20295;-71
2021/10/28 20:05:49;;;;;;;0.53;0.53;;;;;;;10.91;74.19;101155.75;4959124;28;20027;-71
2021/10/28 20:13:01;;;;;;;0.40;0.40;;;;;;;10.93;74.41;101151.44;4957844;29;20429;-70
2021/10/28 20:14:10;;;;;;;0.33;0.33;;;;;;;11.04;73.39;101141.28;4953049;28;20062;-71
2021/10/28 20:22:02;;;;;;;0.47;0.47;;;;;;;11.07;73.33;101136.13;4960243;28;20050;-73
2021/10/28 20:24:27;;;;;;;0.50;0.50;;;;;;;11.13;72.45;101131.09;4959569;28;20326;-72
2021/10/28 20:26:53;;;;;;;0.47;0.47;;;;;;;11.18;72.38;101131.22;4952749;28;20390;-71